sensor_id;sensor_type;location;lat;lon;timestamp;temperature;humidity
14236;DHT22;7202;50.718;7.072;2023-05-13T00:01:48;13.20;99.90
14236;DHT22;7202;50.718;7.072;2023-05-13T00:04:16;13.20;99.90
14236;DHT22;7202;50.718;7.072;2023-05-13T00:06:46;13.20;99.90
14236;DHT22;7202;50.718;7.072;2023-05-13T00:09:15;13.20;99.90
14236;DHT22;7202;50.718;7.072;2023-05-13T00:11:43;13.10;99.90
14236;DHT22;7202;50.718;7.072;2023-05-13T00:14:12;13.10;99.90
14236;DHT22;7202;50.718;7.072;2023-05-13T00:16:41;13.10;99.90
14236;DHT22;7202;50.718;7.072;2023-05-13T00:19:10;13.10;99.90
14236;DHT22;7202;50.718;7.072;2023-05-13T00:21:41;13.10;99.90
14236;DHT22;7202;50.718;7.072;2023-05-13T00:24:11;13.10;99.90
14236;DHT22;7202;50.718;7.072;2023-05-13T00:26:39;13.00;99.90
14236;DHT22;7202;50.718;7.072;2023-05-13T00:29:08;13.10;99.90
14236;DHT22;7202;50.718;7.072;2023-05-13T00:31:37;13.00;99.90
14236;DHT22;7202;50.718;7.072;2023-05-13T00:34:06;13.00;99.90
14236;DHT22;7202;50.718;7.072;2023-05-13T00:36:35;13.00;99.90
14236;DHT22;7202;50.718;7.072;2023-05-13T00:39:03;13.00;99.90
14236;DHT22;7202;50.718;7.072;2023-05-13T00:41:33;13.00;99.90
14236;DHT22;7202;50.718;7.072;2023-05-13T00:44:02;13.00;99.90
14236;DHT22;7202;50.718;7.072;2023-05-13T00:46:32;12.90;99.90
14236;DHT22;7202;50.718;7.072;2023-05-13T00:49:01;12.90;99.90
14236;DHT22;7202;50.718;7.072;2023-05-13T00:51:32;12.90;99.90
14236;DHT22;7202;50.718;7.072;2023-05-13T00:54:00;12.90;99.90
14236;DHT22;7202;50.718;7.072;2023-05-13T00:56:29;12.90;99.90
14236;DHT22;7202;50.718;7.072;2023-05-13T00:58:59;12.90;99.90
14236;DHT22;7202;50.718;7.072;2023-05-13T01:01:33;12.90;99.90
14236;DHT22;7202;50.718;7.072;2023-05-13T01:04:15;12.90;99.90
14236;DHT22;7202;50.718;7.072;2023-05-13T01:06:56;12.90;99.90
14236;DHT22;7202;50.718;7.072;2023-05-13T01:09:35;12.90;99.90
14236;DHT22;7202;50.718;7.072;2023-05-13T01:12:08;12.90;99.90
14236;DHT22;7202;50.718;7.072;2023-05-13T01:14:46;12.80;99.90
14236;DHT22;7202;50.718;7.072;2023-05-13T01:17:20;12.90;99.90
14236;DHT22;7202;50.718;7.072;2023-05-13T01:19:54;12.80;99.90
14236;DHT22;7202;50.718;7.072;2023-05-13T01:22:25;12.80;99.90
14236;DHT22;7202;50.718;7.072;2023-05-13T01:24:54;12.80;99.90
14236;DHT22;7202;50.718;7.072;2023-05-13T01:27:24;12.80;99.90
14236;DHT22;7202;50.718;7.072;2023-05-13T01:29:55;12.80;99.90
14236;DHT22;7202;50.718;7.072;2023-05-13T01:32:28;12.80;99.90
14236;DHT22;7202;50.718;7.072;2023-05-13T01:34:57;12.80;99.90
14236;DHT22;7202;50.718;7.072;2023-05-13T01:37:29;12.70;99.90
14236;DHT22;7202;50.718;7.072;2023-05-13T01:39:57;12.70;99.90
14236;DHT22;7202;50.718;7.072;2023-05-13T01:42:29;12.70;99.90
14236;DHT22;7202;50.718;7.072;2023-05-13T01:44:57;12.70;99.90
14236;DHT22;7202;50.718;7.072;2023-05-13T01:47:26;12.70;99.90
14236;DHT22;7202;50.718;7.072;2023-05-13T01:49:55;12.70;99.90
14236;DHT22;7202;50.718;7.072;2023-05-13T01:52:24;12.60;99.90
14236;DHT22;7202;50.718;7.072;2023-05-13T01:54:54;12.60;99.90
14236;DHT22;7202;50.718;7.072;2023-05-13T01:57:23;12.60;99.90
14236;DHT22;7202;50.718;7.072;2023-05-13T01:59:51;12.60;99.90
14236;DHT22;7202;50.718;7.072;2023-05-13T02:02:20;12.60;99.90
14236;DHT22;7202;50.718;7.072;2023-05-13T02:04:49;12.50;99.90
14236;DHT22;7202;50.718;7.072;2023-05-13T02:07:18;12.50;99.90
14236;DHT22;7202;50.718;7.072;2023-05-13T02:09:47;12.40;99.90
14236;DHT22;7202;50.718;7.072;2023-05-13T02:12:17;12.40;99.90
14236;DHT22;7202;50.718;7.072;2023-05-13T02:14:48;12.40;99.90
14236;DHT22;7202;50.718;7.072;2023-05-13T02:17:17;12.30;99.90
14236;DHT22;7202;50.718;7.072;2023-05-13T02:19:46;12.30;99.90
14236;DHT22;7202;50.718;7.072;2023-05-13T02:22:14;12.30;99.90
14236;DHT22;7202;50.718;7.072;2023-05-13T02:24:43;12.30;99.90
14236;DHT22;7202;50.718;7.072;2023-05-13T02:27:12;12.30;99.90
14236;DHT22;7202;50.718;7.072;2023-05-13T02:29:44;12.20;99.90
14236;DHT22;7202;50.718;7.072;2023-05-13T02:32:12;12.20;99.90
14236;DHT22;7202;50.718;7.072;2023-05-13T02:34:41;12.20;99.90
14236;DHT22;7202;50.718;7.072;2023-05-13T02:37:10;12.10;99.90
14236;DHT22;7202;50.718;7.072;2023-05-13T02:39:47;12.10;99.90
14236;DHT22;7202;50.718;7.072;2023-05-13T02:42:15;12.10;99.90
14236;DHT22;7202;50.718;7.072;2023-05-13T02:44:46;12.00;99.90
14236;DHT22;7202;50.718;7.072;2023-05-13T02:47:17;12.00;99.90
14236;DHT22;7202;50.718;7.072;2023-05-13T02:49:46;12.00;99.90
14236;DHT22;7202;50.718;7.072;2023-05-13T02:52:15;11.90;99.90
14236;DHT22;7202;50.718;7.072;2023-05-13T02:54:43;11.90;99.90
14236;DHT22;7202;50.718;7.072;2023-05-13T02:57:12;11.90;99.90
14236;DHT22;7202;50.718;7.072;2023-05-13T02:59:41;11.80;99.90
14236;DHT22;7202;50.718;7.072;2023-05-13T03:02:11;11.80;99.90
14236;DHT22;7202;50.718;7.072;2023-05-13T03:04:40;11.80;99.90
14236;DHT22;7202;50.718;7.072;2023-05-13T03:07:09;11.70;99.90
14236;DHT22;7202;50.718;7.072;2023-05-13T03:09:37;11.70;99.90
14236;DHT22;7202;50.718;7.072;2023-05-13T03:12:08;11.70;99.90
14236;DHT22;7202;50.718;7.072;2023-05-13T03:14:37;11.60;99.90
14236;DHT22;7202;50.718;7.072;2023-05-13T03:17:06;11.60;99.90
14236;DHT22;7202;50.718;7.072;2023-05-13T03:19:37;11.60;99.90
14236;DHT22;7202;50.718;7.072;2023-05-13T03:22:06;11.50;99.90
14236;DHT22;7202;50.718;7.072;2023-05-13T03:24:34;11.50;99.90
14236;DHT22;7202;50.718;7.072;2023-05-13T03:27:04;11.50;99.90
14236;DHT22;7202;50.718;7.072;2023-05-13T03:29:33;11.40;99.90
14236;DHT22;7202;50.718;7.072;2023-05-13T03:32:02;11.40;99.90
14236;DHT22;7202;50.718;7.072;2023-05-13T03:34:32;11.40;99.90
14236;DHT22;7202;50.718;7.072;2023-05-13T03:37:04;11.40;99.90
14236;DHT22;7202;50.718;7.072;2023-05-13T03:39:33;11.30;99.90
14236;DHT22;7202;50.718;7.072;2023-05-13T03:42:02;11.30;99.90
14236;DHT22;7202;50.718;7.072;2023-05-13T03:44:30;11.30;99.90
14236;DHT22;7202;50.718;7.072;2023-05-13T03:46:59;11.30;99.90
14236;DHT22;7202;50.718;7.072;2023-05-13T03:49:28;11.20;99.90
14236;DHT22;7202;50.718;7.072;2023-05-13T03:51:57;11.20;99.90
14236;DHT22;7202;50.718;7.072;2023-05-13T03:54:27;11.20;99.90
14236;DHT22;7202;50.718;7.072;2023-05-13T03:56:56;11.20;99.90
14236;DHT22;7202;50.718;7.072;2023-05-13T03:59:25;11.20;99.90
14236;DHT22;7202;50.718;7.072;2023-05-13T04:01:53;11.10;99.90
14236;DHT22;7202;50.718;7.072;2023-05-13T04:04:22;11.10;99.90
14236;DHT22;7202;50.718;7.072;2023-05-13T04:06:51;11.10;99.90
14236;DHT22;7202;50.718;7.072;2023-05-13T04:09:19;11.10;99.90
14236;DHT22;7202;50.718;7.072;2023-05-13T04:11:49;11.10;99.90
14236;DHT22;7202;50.718;7.072;2023-05-13T04:14:18;11.00;99.90
14236;DHT22;7202;50.718;7.072;2023-05-13T04:16:47;11.10;99.90
14236;DHT22;7202;50.718;7.072;2023-05-13T04:19:16;11.00;99.90
14236;DHT22;7202;50.718;7.072;2023-05-13T04:21:44;11.00;99.90
14236;DHT22;7202;50.718;7.072;2023-05-13T04:24:13;11.00;99.90
14236;DHT22;7202;50.718;7.072;2023-05-13T04:26:41;11.00;99.90
14236;DHT22;7202;50.718;7.072;2023-05-13T04:29:11;11.00;99.90
14236;DHT22;7202;50.718;7.072;2023-05-13T04:31:41;11.00;99.90
14236;DHT22;7202;50.718;7.072;2023-05-13T04:34:10;11.00;99.90
14236;DHT22;7202;50.718;7.072;2023-05-13T04:36:39;11.00;99.90
14236;DHT22;7202;50.718;7.072;2023-05-13T04:39:09;11.00;99.90
14236;DHT22;7202;50.718;7.072;2023-05-13T04:41:37;11.00;99.90
14236;DHT22;7202;50.718;7.072;2023-05-13T04:44:06;11.00;99.90
14236;DHT22;7202;50.718;7.072;2023-05-13T04:46:37;11.00;99.90
14236;DHT22;7202;50.718;7.072;2023-05-13T04:49:07;11.00;99.90
14236;DHT22;7202;50.718;7.072;2023-05-13T04:51:37;11.00;99.90
14236;DHT22;7202;50.718;7.072;2023-05-13T04:54:06;11.00;99.90
14236;DHT22;7202;50.718;7.072;2023-05-13T04:56:35;11.00;99.90
14236;DHT22;7202;50.718;7.072;2023-05-13T04:59:04;11.10;99.90
14236;DHT22;7202;50.718;7.072;2023-05-13T05:01:33;11.10;99.90
14236;DHT22;7202;50.718;7.072;2023-05-13T05:04:04;11.20;99.90
14236;DHT22;7202;50.718;7.072;2023-05-13T05:06:35;11.20;99.90
14236;DHT22;7202;50.718;7.072;2023-05-13T05:09:04;11.30;99.90
14236;DHT22;7202;50.718;7.072;2023-05-13T05:11:34;11.30;99.90
14236;DHT22;7202;50.718;7.072;2023-05-13T05:14:03;11.40;99.90
14236;DHT22;7202;50.718;7.072;2023-05-13T05:16:32;11.50;99.90
14236;DHT22;7202;50.718;7.072;2023-05-13T05:19:00;11.50;99.90
14236;DHT22;7202;50.718;7.072;2023-05-13T05:21:31;11.60;99.90
14236;DHT22;7202;50.718;7.072;2023-05-13T05:24:00;11.70;99.90
14236;DHT22;7202;50.718;7.072;2023-05-13T05:26:29;11.70;99.90
14236;DHT22;7202;50.718;7.072;2023-05-13T05:28:58;11.80;99.90
14236;DHT22;7202;50.718;7.072;2023-05-13T05:31:26;11.90;99.90
14236;DHT22;7202;50.718;7.072;2023-05-13T05:33:59;11.90;99.90
14236;DHT22;7202;50.718;7.072;2023-05-13T05:36:28;12.10;99.90
14236;DHT22;7202;50.718;7.072;2023-05-13T05:38:58;12.20;99.90
14236;DHT22;7202;50.718;7.072;2023-05-13T05:41:32;12.30;99.90
14236;DHT22;7202;50.718;7.072;2023-05-13T05:44:01;12.40;99.90
14236;DHT22;7202;50.718;7.072;2023-05-13T05:46:30;12.60;99.90
14236;DHT22;7202;50.718;7.072;2023-05-13T05:49:00;12.80;99.90
14236;DHT22;7202;50.718;7.072;2023-05-13T05:51:33;12.90;99.90
14236;DHT22;7202;50.718;7.072;2023-05-13T05:54:04;13.10;99.90
14236;DHT22;7202;50.718;7.072;2023-05-13T05:56:34;13.20;99.90
14236;DHT22;7202;50.718;7.072;2023-05-13T05:59:02;13.30;99.90
14236;DHT22;7202;50.718;7.072;2023-05-13T06:01:31;13.40;99.90
14236;DHT22;7202;50.718;7.072;2023-05-13T06:04:03;13.40;99.90
14236;DHT22;7202;50.718;7.072;2023-05-13T06:06:33;13.50;99.90
14236;DHT22;7202;50.718;7.072;2023-05-13T06:09:03;13.60;99.90
14236;DHT22;7202;50.718;7.072;2023-05-13T06:11:33;13.80;99.90
14236;DHT22;7202;50.718;7.072;2023-05-13T06:14:02;13.90;99.90
14236;DHT22;7202;50.718;7.072;2023-05-13T06:16:31;14.10;99.90
14236;DHT22;7202;50.718;7.072;2023-05-13T06:19:00;14.20;99.90
14236;DHT22;7202;50.718;7.072;2023-05-13T06:21:28;14.40;99.90
14236;DHT22;7202;50.718;7.072;2023-05-13T06:23:57;14.50;99.90
14236;DHT22;7202;50.718;7.072;2023-05-13T06:26:28;14.60;99.90
14236;DHT22;7202;50.718;7.072;2023-05-13T06:28:57;14.70;99.90
14236;DHT22;7202;50.718;7.072;2023-05-13T06:31:26;14.80;99.90
14236;DHT22;7202;50.718;7.072;2023-05-13T06:33:55;14.90;99.90
14236;DHT22;7202;50.718;7.072;2023-05-13T06:36:24;15.00;99.90
14236;DHT22;7202;50.718;7.072;2023-05-13T06:38:52;15.00;99.90
14236;DHT22;7202;50.718;7.072;2023-05-13T06:41:22;15.10;99.90
14236;DHT22;7202;50.718;7.072;2023-05-13T06:43:56;15.10;99.90
14236;DHT22;7202;50.718;7.072;2023-05-13T06:46:28;15.10;99.90
14236;DHT22;7202;50.718;7.072;2023-05-13T06:48:56;15.20;99.90
14236;DHT22;7202;50.718;7.072;2023-05-13T06:51:26;15.20;99.90
14236;DHT22;7202;50.718;7.072;2023-05-13T06:53:55;15.20;99.90
14236;DHT22;7202;50.718;7.072;2023-05-13T06:56:24;15.10;99.90
14236;DHT22;7202;50.718;7.072;2023-05-13T06:58:52;15.10;99.90
14236;DHT22;7202;50.718;7.072;2023-05-13T07:01:22;15.10;99.90
14236;DHT22;7202;50.718;7.072;2023-05-13T07:03:51;15.20;99.90
14236;DHT22;7202;50.718;7.072;2023-05-13T07:06:20;15.20;99.90
14236;DHT22;7202;50.718;7.072;2023-05-13T07:08:50;15.30;99.90
14236;DHT22;7202;50.718;7.072;2023-05-13T07:11:19;15.40;99.90
14236;DHT22;7202;50.718;7.072;2023-05-13T07:13:49;15.50;99.90
14236;DHT22;7202;50.718;7.072;2023-05-13T07:16:17;15.50;99.90
14236;DHT22;7202;50.718;7.072;2023-05-13T07:18:47;15.60;99.90
14236;DHT22;7202;50.718;7.072;2023-05-13T07:21:16;15.70;99.90
14236;DHT22;7202;50.718;7.072;2023-05-13T07:23:45;15.80;99.90
14236;DHT22;7202;50.718;7.072;2023-05-13T07:26:13;15.70;99.90
14236;DHT22;7202;50.718;7.072;2023-05-13T07:28:42;15.80;99.90
14236;DHT22;7202;50.718;7.072;2023-05-13T07:31:11;15.90;99.90
14236;DHT22;7202;50.718;7.072;2023-05-13T07:33:39;15.90;99.90
14236;DHT22;7202;50.718;7.072;2023-05-13T07:36:10;15.90;99.90
14236;DHT22;7202;50.718;7.072;2023-05-13T07:38:38;16.00;99.90
14236;DHT22;7202;50.718;7.072;2023-05-13T07:41:07;16.00;99.90
14236;DHT22;7202;50.718;7.072;2023-05-13T07:43:35;16.10;99.90
14236;DHT22;7202;50.718;7.072;2023-05-13T07:46:07;16.20;99.90
14236;DHT22;7202;50.718;7.072;2023-05-13T07:48:35;16.10;99.90
14236;DHT22;7202;50.718;7.072;2023-05-13T07:51:04;16.20;99.90
14236;DHT22;7202;50.718;7.072;2023-05-13T07:53:34;16.10;99.90
14236;DHT22;7202;50.718;7.072;2023-05-13T07:56:03;16.30;99.90
14236;DHT22;7202;50.718;7.072;2023-05-13T07:58:32;16.40;99.90
14236;DHT22;7202;50.718;7.072;2023-05-13T08:01:01;16.40;99.90
14236;DHT22;7202;50.718;7.072;2023-05-13T08:03:30;16.40;99.90
14236;DHT22;7202;50.718;7.072;2023-05-13T08:05:59;16.40;99.90
14236;DHT22;7202;50.718;7.072;2023-05-13T08:08:28;16.30;99.90
14236;DHT22;7202;50.718;7.072;2023-05-13T08:10:58;16.30;99.90
14236;DHT22;7202;50.718;7.072;2023-05-13T08:13:26;16.40;99.90
14236;DHT22;7202;50.718;7.072;2023-05-13T08:15:55;16.50;99.90
14236;DHT22;7202;50.718;7.072;2023-05-13T08:18:23;16.60;99.90
14236;DHT22;7202;50.718;7.072;2023-05-13T08:20:52;16.70;99.90
14236;DHT22;7202;50.718;7.072;2023-05-13T08:23:21;16.70;99.90
14236;DHT22;7202;50.718;7.072;2023-05-13T08:26:08;16.80;99.90
14236;DHT22;7202;50.718;7.072;2023-05-13T08:28:37;16.90;99.90
14236;DHT22;7202;50.718;7.072;2023-05-13T08:31:05;17.00;99.90
14236;DHT22;7202;50.718;7.072;2023-05-13T08:33:34;17.00;99.90
14236;DHT22;7202;50.718;7.072;2023-05-13T08:36:03;17.10;99.90
14236;DHT22;7202;50.718;7.072;2023-05-13T08:38:32;17.20;99.90
14236;DHT22;7202;50.718;7.072;2023-05-13T08:41:03;17.20;99.90
14236;DHT22;7202;50.718;7.072;2023-05-13T08:43:33;17.30;99.90
14236;DHT22;7202;50.718;7.072;2023-05-13T08:46:02;17.30;99.90
14236;DHT22;7202;50.718;7.072;2023-05-13T08:48:32;17.40;99.90
14236;DHT22;7202;50.718;7.072;2023-05-13T08:51:01;17.50;99.90
14236;DHT22;7202;50.718;7.072;2023-05-13T08:53:30;17.60;99.90
14236;DHT22;7202;50.718;7.072;2023-05-13T08:55:59;17.60;99.90
14236;DHT22;7202;50.718;7.072;2023-05-13T08:58:28;17.60;99.90
14236;DHT22;7202;50.718;7.072;2023-05-13T09:00:58;17.70;99.90
14236;DHT22;7202;50.718;7.072;2023-05-13T09:03:28;17.70;99.90
14236;DHT22;7202;50.718;7.072;2023-05-13T09:05:59;17.80;99.90
14236;DHT22;7202;50.718;7.072;2023-05-13T09:08:28;17.80;99.90
14236;DHT22;7202;50.718;7.072;2023-05-13T09:10:58;17.90;99.90
14236;DHT22;7202;50.718;7.072;2023-05-13T09:13:27;17.90;99.90
14236;DHT22;7202;50.718;7.072;2023-05-13T09:15:57;18.00;99.90
14236;DHT22;7202;50.718;7.072;2023-05-13T09:18:28;18.10;99.90
14236;DHT22;7202;50.718;7.072;2023-05-13T09:20:57;18.10;99.90
14236;DHT22;7202;50.718;7.072;2023-05-13T09:23:26;18.30;99.90
14236;DHT22;7202;50.718;7.072;2023-05-13T09:25:55;18.30;99.90
14236;DHT22;7202;50.718;7.072;2023-05-13T09:28:23;18.40;99.90
14236;DHT22;7202;50.718;7.072;2023-05-13T09:30:53;18.50;99.90
14236;DHT22;7202;50.718;7.072;2023-05-13T09:33:28;18.50;99.90
14236;DHT22;7202;50.718;7.072;2023-05-13T09:35:57;18.60;99.90
14236;DHT22;7202;50.718;7.072;2023-05-13T09:38:27;18.80;99.90
14236;DHT22;7202;50.718;7.072;2023-05-13T09:40:59;18.90;99.90
14236;DHT22;7202;50.718;7.072;2023-05-13T09:43:31;18.90;99.90
14236;DHT22;7202;50.718;7.072;2023-05-13T09:46:01;19.00;99.90
14236;DHT22;7202;50.718;7.072;2023-05-13T09:48:33;19.00;99.90
14236;DHT22;7202;50.718;7.072;2023-05-13T09:51:04;19.10;99.90
14236;DHT22;7202;50.718;7.072;2023-05-13T09:53:32;19.10;99.90
14236;DHT22;7202;50.718;7.072;2023-05-13T09:56:01;19.10;99.90
14236;DHT22;7202;50.718;7.072;2023-05-13T09:58:30;19.20;99.90
14236;DHT22;7202;50.718;7.072;2023-05-13T10:00:59;19.20;99.90
14236;DHT22;7202;50.718;7.072;2023-05-13T10:03:28;19.30;99.90
14236;DHT22;7202;50.718;7.072;2023-05-13T10:06:00;19.30;99.90
14236;DHT22;7202;50.718;7.072;2023-05-13T10:08:30;19.40;99.90
14236;DHT22;7202;50.718;7.072;2023-05-13T10:10:59;19.50;99.90
14236;DHT22;7202;50.718;7.072;2023-05-13T10:13:29;19.60;99.90
14236;DHT22;7202;50.718;7.072;2023-05-13T10:15:59;19.60;99.90
14236;DHT22;7202;50.718;7.072;2023-05-13T10:18:28;19.70;99.90
14236;DHT22;7202;50.718;7.072;2023-05-13T10:20:58;19.70;99.90
14236;DHT22;7202;50.718;7.072;2023-05-13T10:23:27;19.80;99.90
14236;DHT22;7202;50.718;7.072;2023-05-13T10:25:58;19.90;99.90
14236;DHT22;7202;50.718;7.072;2023-05-13T10:28:27;19.90;99.90
14236;DHT22;7202;50.718;7.072;2023-05-13T10:30:55;19.90;99.90
14236;DHT22;7202;50.718;7.072;2023-05-13T10:33:25;20.00;99.90
14236;DHT22;7202;50.718;7.072;2023-05-13T10:36:07;20.10;99.90
14236;DHT22;7202;50.718;7.072;2023-05-13T10:38:48;20.10;99.90
14236;DHT22;7202;50.718;7.072;2023-05-13T10:41:38;20.20;99.90
14236;DHT22;7202;50.718;7.072;2023-05-13T10:44:21;20.30;99.90
14236;DHT22;7202;50.718;7.072;2023-05-13T10:46:50;20.40;99.90
14236;DHT22;7202;50.718;7.072;2023-05-13T10:49:21;20.50;99.90
14236;DHT22;7202;50.718;7.072;2023-05-13T10:51:52;20.60;99.90
14236;DHT22;7202;50.718;7.072;2023-05-13T10:54:22;20.70;99.90
14236;DHT22;7202;50.718;7.072;2023-05-13T10:56:55;20.80;99.90
14236;DHT22;7202;50.718;7.072;2023-05-13T10:59:24;20.80;99.90
14236;DHT22;7202;50.718;7.072;2023-05-13T11:02:00;20.80;99.90
14236;DHT22;7202;50.718;7.072;2023-05-13T11:04:33;20.70;99.90
14236;DHT22;7202;50.718;7.072;2023-05-13T11:07:23;20.50;99.90
14236;DHT22;7202;50.718;7.072;2023-05-13T11:09:51;20.40;99.90
14236;DHT22;7202;50.718;7.072;2023-05-13T11:12:20;20.20;99.90
14236;DHT22;7202;50.718;7.072;2023-05-13T11:14:48;20.00;99.90
14236;DHT22;7202;50.718;7.072;2023-05-13T11:17:18;19.80;99.90
14236;DHT22;7202;50.718;7.072;2023-05-13T11:19:49;19.60;99.90
14236;DHT22;7202;50.718;7.072;2023-05-13T11:22:19;19.40;99.90
14236;DHT22;7202;50.718;7.072;2023-05-13T11:25:03;19.20;99.90
14236;DHT22;7202;50.718;7.072;2023-05-13T11:27:37;19.00;99.90
14236;DHT22;7202;50.718;7.072;2023-05-13T11:30:07;18.80;99.90
14236;DHT22;7202;50.718;7.072;2023-05-13T11:32:53;18.50;99.90
14236;DHT22;7202;50.718;7.072;2023-05-13T11:35:24;18.20;99.90
14236;DHT22;7202;50.718;7.072;2023-05-13T11:37:53;17.90;99.90
14236;DHT22;7202;50.718;7.072;2023-05-13T11:40:29;17.60;99.90
14236;DHT22;7202;50.718;7.072;2023-05-13T11:42:58;17.30;99.90
14236;DHT22;7202;50.718;7.072;2023-05-13T11:45:28;17.00;99.90
14236;DHT22;7202;50.718;7.072;2023-05-13T11:47:57;16.80;99.90
14236;DHT22;7202;50.718;7.072;2023-05-13T11:50:27;16.50;99.90
14236;DHT22;7202;50.718;7.072;2023-05-13T11:52:58;16.40;99.90
14236;DHT22;7202;50.718;7.072;2023-05-13T11:55:30;16.20;99.90
14236;DHT22;7202;50.718;7.072;2023-05-13T11:57:59;16.10;99.90
14236;DHT22;7202;50.718;7.072;2023-05-13T12:00:28;16.00;99.90
14236;DHT22;7202;50.718;7.072;2023-05-13T12:02:58;15.90;99.90
14236;DHT22;7202;50.718;7.072;2023-05-13T12:05:27;15.90;99.90
14236;DHT22;7202;50.718;7.072;2023-05-13T12:07:57;15.80;99.90
14236;DHT22;7202;50.718;7.072;2023-05-13T12:10:25;15.70;99.90
14236;DHT22;7202;50.718;7.072;2023-05-13T12:12:56;15.60;99.90
14236;DHT22;7202;50.718;7.072;2023-05-13T12:15:24;15.60;99.90
14236;DHT22;7202;50.718;7.072;2023-05-13T12:17:54;15.60;99.90
14236;DHT22;7202;50.718;7.072;2023-05-13T12:20:24;15.60;99.90
14236;DHT22;7202;50.718;7.072;2023-05-13T12:22:54;15.40;99.90
14236;DHT22;7202;50.718;7.072;2023-05-13T12:25:43;15.30;99.90
14236;DHT22;7202;50.718;7.072;2023-05-13T12:28:15;15.30;99.90
14236;DHT22;7202;50.718;7.072;2023-05-13T12:30:49;15.20;99.90
14236;DHT22;7202;50.718;7.072;2023-05-13T12:33:20;15.20;99.90
14236;DHT22;7202;50.718;7.072;2023-05-13T12:35:51;15.20;99.90
14236;DHT22;7202;50.718;7.072;2023-05-13T12:38:21;15.20;99.90
14236;DHT22;7202;50.718;7.072;2023-05-13T12:40:51;15.20;99.90
14236;DHT22;7202;50.718;7.072;2023-05-13T12:43:22;15.20;99.90
14236;DHT22;7202;50.718;7.072;2023-05-13T12:45:52;15.30;99.90
14236;DHT22;7202;50.718;7.072;2023-05-13T12:48:22;15.30;99.90
14236;DHT22;7202;50.718;7.072;2023-05-13T12:50:52;15.30;99.90
14236;DHT22;7202;50.718;7.072;2023-05-13T12:53:21;15.30;99.90
14236;DHT22;7202;50.718;7.072;2023-05-13T12:55:50;15.40;99.90
14236;DHT22;7202;50.718;7.072;2023-05-13T12:58:18;15.50;99.90
14236;DHT22;7202;50.718;7.072;2023-05-13T13:00:48;15.50;99.90
14236;DHT22;7202;50.718;7.072;2023-05-13T13:03:17;15.40;99.90
14236;DHT22;7202;50.718;7.072;2023-05-13T13:05:50;15.50;99.90
14236;DHT22;7202;50.718;7.072;2023-05-13T13:08:19;15.60;99.90
14236;DHT22;7202;50.718;7.072;2023-05-13T13:10:48;15.70;99.90
14236;DHT22;7202;50.718;7.072;2023-05-13T13:13:17;15.70;99.90
14236;DHT22;7202;50.718;7.072;2023-05-13T13:15:45;15.70;99.90
14236;DHT22;7202;50.718;7.072;2023-05-13T13:18:15;15.70;99.90
14236;DHT22;7202;50.718;7.072;2023-05-13T13:20:44;15.80;99.90
14236;DHT22;7202;50.718;7.072;2023-05-13T13:23:13;15.80;99.90
14236;DHT22;7202;50.718;7.072;2023-05-13T13:25:41;15.70;99.90
14236;DHT22;7202;50.718;7.072;2023-05-13T13:28:12;15.70;99.90
14236;DHT22;7202;50.718;7.072;2023-05-13T13:30:41;15.70;99.90
14236;DHT22;7202;50.718;7.072;2023-05-13T13:33:14;15.70;99.90
14236;DHT22;7202;50.718;7.072;2023-05-13T13:35:44;15.60;99.90
14236;DHT22;7202;50.718;7.072;2023-05-13T13:38:13;15.60;99.90
14236;DHT22;7202;50.718;7.072;2023-05-13T13:40:42;15.60;99.90
14236;DHT22;7202;50.718;7.072;2023-05-13T13:43:10;15.60;99.90
14236;DHT22;7202;50.718;7.072;2023-05-13T13:45:39;15.70;99.90
14236;DHT22;7202;50.718;7.072;2023-05-13T13:48:07;15.70;99.90
14236;DHT22;7202;50.718;7.072;2023-05-13T13:50:38;15.70;99.90
14236;DHT22;7202;50.718;7.072;2023-05-13T13:53:06;15.80;99.90
14236;DHT22;7202;50.718;7.072;2023-05-13T13:55:35;15.80;99.90
14236;DHT22;7202;50.718;7.072;2023-05-13T13:58:04;15.90;99.90
14236;DHT22;7202;50.718;7.072;2023-05-13T14:00:32;16.00;99.90
14236;DHT22;7202;50.718;7.072;2023-05-13T14:03:01;16.10;99.90
14236;DHT22;7202;50.718;7.072;2023-05-13T14:05:30;16.20;99.90
14236;DHT22;7202;50.718;7.072;2023-05-13T14:08:00;16.30;99.90
14236;DHT22;7202;50.718;7.072;2023-05-13T14:10:29;16.40;99.90
14236;DHT22;7202;50.718;7.072;2023-05-13T14:12:57;16.40;99.90
14236;DHT22;7202;50.718;7.072;2023-05-13T14:15:26;16.60;99.90
14236;DHT22;7202;50.718;7.072;2023-05-13T14:17:56;16.50;99.90
14236;DHT22;7202;50.718;7.072;2023-05-13T14:20:25;16.50;99.90
14236;DHT22;7202;50.718;7.072;2023-05-13T14:22:55;16.50;99.90
14236;DHT22;7202;50.718;7.072;2023-05-13T14:25:25;16.50;99.90
14236;DHT22;7202;50.718;7.072;2023-05-13T14:27:54;16.50;99.90
14236;DHT22;7202;50.718;7.072;2023-05-13T14:30:22;16.60;99.90
14236;DHT22;7202;50.718;7.072;2023-05-13T14:32:54;16.50;99.90
14236;DHT22;7202;50.718;7.072;2023-05-13T14:35:22;16.50;99.90
14236;DHT22;7202;50.718;7.072;2023-05-13T14:37:51;16.50;99.90
14236;DHT22;7202;50.718;7.072;2023-05-13T14:40:19;16.40;99.90
14236;DHT22;7202;50.718;7.072;2023-05-13T14:42:50;16.40;99.90
14236;DHT22;7202;50.718;7.072;2023-05-13T14:45:18;16.40;99.90
14236;DHT22;7202;50.718;7.072;2023-05-13T14:47:47;16.40;99.90
14236;DHT22;7202;50.718;7.072;2023-05-13T14:50:20;16.30;99.90
14236;DHT22;7202;50.718;7.072;2023-05-13T14:52:49;16.20;99.90
14236;DHT22;7202;50.718;7.072;2023-05-13T14:55:17;16.10;99.90
14236;DHT22;7202;50.718;7.072;2023-05-13T14:57:46;16.10;99.90
14236;DHT22;7202;50.718;7.072;2023-05-13T15:00:17;16.00;99.90
14236;DHT22;7202;50.718;7.072;2023-05-13T15:02:46;16.00;99.90
14236;DHT22;7202;50.718;7.072;2023-05-13T15:05:15;15.90;99.90
14236;DHT22;7202;50.718;7.072;2023-05-13T15:07:43;15.90;99.90
14236;DHT22;7202;50.718;7.072;2023-05-13T15:10:12;15.90;99.90
14236;DHT22;7202;50.718;7.072;2023-05-13T15:12:41;15.90;99.90
14236;DHT22;7202;50.718;7.072;2023-05-13T15:15:10;15.90;99.90
14236;DHT22;7202;50.718;7.072;2023-05-13T15:17:40;15.90;99.90
14236;DHT22;7202;50.718;7.072;2023-05-13T15:20:10;15.90;99.90
14236;DHT22;7202;50.718;7.072;2023-05-13T15:22:39;15.90;99.90
14236;DHT22;7202;50.718;7.072;2023-05-13T15:25:08;16.00;99.90
14236;DHT22;7202;50.718;7.072;2023-05-13T15:27:36;16.10;99.90
14236;DHT22;7202;50.718;7.072;2023-05-13T15:30:06;16.10;99.90
14236;DHT22;7202;50.718;7.072;2023-05-13T15:32:35;16.20;99.90
14236;DHT22;7202;50.718;7.072;2023-05-13T15:35:06;16.20;99.90
14236;DHT22;7202;50.718;7.072;2023-05-13T15:37:35;16.30;99.90
14236;DHT22;7202;50.718;7.072;2023-05-13T15:40:05;16.30;99.90
14236;DHT22;7202;50.718;7.072;2023-05-13T15:42:33;16.40;99.90
14236;DHT22;7202;50.718;7.072;2023-05-13T15:45:03;16.40;99.90
14236;DHT22;7202;50.718;7.072;2023-05-13T15:47:32;16.50;99.90
14236;DHT22;7202;50.718;7.072;2023-05-13T15:50:01;16.50;99.90
14236;DHT22;7202;50.718;7.072;2023-05-13T15:52:31;16.60;99.90
14236;DHT22;7202;50.718;7.072;2023-05-13T15:55:00;16.60;99.90
14236;DHT22;7202;50.718;7.072;2023-05-13T15:57:28;16.60;99.90
14236;DHT22;7202;50.718;7.072;2023-05-13T15:59:57;16.60;99.90
14236;DHT22;7202;50.718;7.072;2023-05-13T16:02:26;16.70;99.90